Time;durP1;ratioP1;P1;durP2;ratioP2;P2;SDS_P1;SDS_P2;PMS_P1;PMS_P2;Temp;Humidity;BMP_temperature;BMP_pressure;BME280_temperature;BME280_humidity;BME280_pressure;Samples;Min_cycle;Max_cycle;Signal;HPM_P1;HPM_P2
2023/11/07 00:00:15;;;;;;;3.72;2.63;;;23.40;58.50;;;;;;10444021;28;20196;-54
2023/11/07 00:05:20;;;;;;;5.45;2.92;;;23.30;58.40;;;;;;10437295;28;20224;-55
2023/11/07 00:10:28;;;;;;;5.60;2.80;;;23.30;58.40;;;;;;10436828;28;20255;-52
2023/11/07 00:15:32;;;;;;;3.97;2.70;;;23.30;58.40;;;;;;10436833;28;20706;-54
2023/11/07 00:20:37;;;;;;;4.60;2.85;;;23.30;58.40;;;;;;10438447;28;20729;-53
2023/11/07 00:25:40;;;;;;;3.97;2.47;;;23.30;58.40;;;;;;10440450;28;20949;-56
2023/11/07 00:30:44;;;;;;;4.47;2.63;;;23.30;58.40;;;;;;10442048;28;20868;-53
2023/11/07 00:35:49;;;;;;;3.22;2.30;;;23.30;58.40;;;;;;10438864;28;20719;-51
2023/11/07 00:40:52;;;;;;;4.10;2.40;;;23.30;58.40;;;;;;10438384;28;21106;-56
2023/11/07 00:45:56;;;;;;;3.05;2.58;;;23.30;59.10;;;;;;10441574;28;20815;-53
2023/11/07 00:51:01;;;;;;;4.55;2.30;;;23.30;58.40;;;;;;10428127;28;20282;-51
2023/11/07 00:56:07;;;;;;;4.25;2.58;;;23.30;58.40;;;;;;10430506;28;20223;-54
2023/11/07 01:01:11;;;;;;;4.50;2.70;;;23.30;58.40;;;;;;10441730;28;20281;-52
2023/11/07 01:06:16;;;;;;;5.18;2.45;;;23.30;58.40;;;;;;10436564;28;20776;-55
2023/11/07 01:11:20;;;;;;;3.67;2.00;;;23.30;58.40;;;;;;10427579;28;20252;-56
2023/11/07 01:16:24;;;;;;;2.97;2.17;;;23.30;58.40;;;;;;10439203;28;20239;-55
2023/11/07 01:21:29;;;;;;;4.07;2.53;;;23.30;58.40;;;;;;10433541;28;20227;-52
2023/11/07 01:26:32;;;;;;;3.75;2.28;;;23.30;58.40;;;;;;10442001;28;20251;-55
2023/11/07 01:31:36;;;;;;;3.33;2.33;;;23.30;58.40;;;;;;10450173;28;20219;-52
2023/11/07 01:36:41;;;;;;;3.47;2.00;;;23.30;58.40;;;;;;10443813;28;20703;-53
2023/11/07 01:41:45;;;;;;;4.53;2.00;;;23.30;58.40;;;;;;10456851;28;20708;-55
2023/11/07 01:46:49;;;;;;;3.75;2.15;;;23.30;58.40;;;;;;10450291;28;20780;-52
2023/11/07 01:51:56;;;;;;;2.85;1.80;;;23.30;58.40;;;;;;10455576;28;20207;-52
2023/11/07 01:57:01;;;;;;;2.97;2.13;;;23.30;58.40;;;;;;10443049;28;20514;-52
2023/11/07 02:02:10;;;;;;;2.75;1.90;;;23.30;58.40;;;;;;10452596;28;20196;-51
2023/11/07 02:07:15;;;;;;;4.15;2.00;;;23.30;58.40;;;;;;10439037;28;20719;-52
2023/11/07 02:12:18;;;;;;;1.92;1.58;;;23.30;58.40;;;;;;10449051;28;20204;-51
2023/11/07 02:17:22;;;;;;;2.15;1.90;;;23.30;58.40;;;;;;10450523;28;20227;-53
2023/11/07 02:22:27;;;;;;;2.05;1.70;;;23.30;58.40;;;;;;10443556;28;20302;-52
2023/11/07 02:27:32;;;;;;;1.90;1.70;;;23.30;58.40;;;;;;10447016;28;20251;-52
2023/11/07 02:32:36;;;;;;;3.25;1.85;;;23.30;58.40;;;;;;10444702;28;20228;-54
2023/11/07 02:37:40;;;;;;;3.10;1.52;;;23.20;58.30;;;;;;10448605;28;20216;-55
2023/11/07 02:42:45;;;;;;;3.20;1.77;;;23.20;58.30;;;;;;10446340;28;20200;-53
2023/11/07 02:47:48;;;;;;;2.17;1.70;;;23.20;58.30;;;;;;10444460;28;20247;-54
2023/11/07 02:52:52;;;;;;;2.17;1.65;;;23.30;58.30;;;;;;10446696;28;20301;-52
2023/11/07 02:57:57;;;;;;;2.55;1.90;;;23.30;58.30;;;;;;10435512;28;20278;-56
2023/11/07 03:03:01;;;;;;;2.10;1.63;;;23.20;58.90;;;;;;10432312;28;20231;-53
2023/11/07 03:08:06;;;;;;;2.22;1.58;;;23.30;58.30;;;;;;10437456;28;20258;-53
2023/11/07 03:13:12;;;;;;;3.83;1.83;;;23.20;58.30;;;;;;10444993;28;20235;-52
2023/11/07 03:18:16;;;;;;;2.25;1.50;;;23.30;58.30;;;;;;10440075;28;20322;-56
2023/11/07 03:23:20;;;;;;;2.72;1.63;;;23.20;58.30;;;;;;10436116;28;20671;-53
2023/11/07 03:28:25;;;;;;;1.58;1.20;;;23.30;58.40;;;;;;10444000;28;20255;-53
2023/11/07 03:33:29;;;;;;;1.90;1.60;;;23.20;58.30;;;;;;10440494;28;20223;-55
2023/11/07 03:38:33;;;;;;;2.42;1.63;;;23.20;58.30;;;;;;10441148;28;20268;-55
2023/11/07 03:43:38;;;;;;;2.00;1.20;;;23.30;58.30;;;;;;10441121;28;20664;-54
2023/11/07 03:48:42;;;;;;;1.95;1.40;;;23.30;58.40;;;;;;10420480;28;20607;-54
2023/11/07 03:53:45;;;;;;;2.20;1.35;;;23.30;58.30;;;;;;10443315;28;20212;-55
2023/11/07 03:58:50;;;;;;;2.10;1.40;;;23.20;58.30;;;;;;10432899;28;20228;-54
2023/11/07 04:03:54;;;;;;;1.33;1.20;;;23.20;58.30;;;;;;10428969;28;20207;-52
2023/11/07 04:08:59;;;;;;;1.80;1.27;;;23.20;58.30;;;;;;10444192;28;20251;-55
2023/11/07 04:14:04;;;;;;;1.73;1.40;;;23.30;58.40;;;;;;10440928;28;20678;-54
2023/11/07 04:19:07;;;;;;;1.48;1.20;;;23.20;58.30;;;;;;10442310;28;20238;-54
2023/11/07 04:24:12;;;;;;;2.13;1.10;;;23.20;58.30;;;;;;10450329;28;20200;-55
2023/11/07 04:29:17;;;;;;;1.70;1.15;;;23.20;58.30;;;;;;10450760;28;20253;-56
2023/11/07 04:34:21;;;;;;;1.73;1.10;;;23.30;58.30;;;;;;10440956;28;20619;-51
2023/11/07 04:39:25;;;;;;;1.83;1.17;;;23.40;58.30;;;;;;10435902;28;20579;-50
2023/11/07 04:44:31;;;;;;;2.70;1.30;;;23.50;58.40;;;;;;10433543;28;20660;-54
2023/11/07 04:49:35;;;;;;;5.25;1.70;;;23.50;58.30;;;;;;10415429;28;20243;-58
2023/11/07 04:54:39;;;;;;;3.08;1.30;;;23.50;58.30;;;;;;10443744;28;20288;-51
2023/11/07 04:59:44;;;;;;;2.10;1.23;;;23.60;58.30;;;;;;10435687;28;20699;-51
2023/11/07 05:04:51;;;;;;;4.30;1.40;;;23.60;58.30;;;;;;10437113;28;20258;-55
2023/11/07 05:09:58;;;;;;;11.25;2.13;;;23.60;58.30;;;;;;10398644;28;20223;-47
2023/11/07 05:15:05;;;;;;;3.33;1.38;;;23.60;58.30;;;;;;10434006;28;20281;-49
2023/11/07 05:20:10;;;;;;;6.63;1.27;;;23.60;58.30;;;;;;10412380;28;20253;-44
2023/11/07 05:25:14;;;;;;;4.68;1.63;;;23.60;58.50;;;;;;10417183;28;20875;-50
2023/11/07 05:30:19;;;;;;;5.25;2.10;;;23.60;58.50;;;;;;10440809;28;20801;-50
2023/11/07 05:35:26;;;;;;;12.57;1.83;;;23.70;58.50;;;;;;10427899;28;20248;-51
2023/11/07 05:40:29;;;;;;;7.30;1.80;;;23.60;58.30;;;;;;10431015;28;20223;-48
2023/11/07 05:45:34;;;;;;;9.93;1.67;;;23.60;58.40;;;;;;10440348;28;20280;-49
2023/11/07 05:50:41;;;;;;;7.25;1.40;;;23.60;58.40;;;;;;10441839;28;20227;-49
2023/11/07 05:55:46;;;;;;;5.40;1.85;;;23.50;58.50;;;;;;10418071;28;20273;-48
2023/11/07 06:00:50;;;;;;;6.88;1.90;;;23.50;58.50;;;;;;10439050;28;20950;-48
2023/11/07 06:05:57;;;;;;;4.78;1.85;;;23.50;58.60;;;;;;10372769;28;20263;-47
2023/11/07 06:11:01;;;;;;;5.13;1.75;;;23.50;58.60;;;;;;10379032;28;20256;-49
2023/11/07 06:16:07;;;;;;;4.75;1.33;;;23.50;58.60;;;;;;10446597;28;20801;-45
2023/11/07 06:21:12;;;;;;;7.13;1.65;;;23.40;58.60;;;;;;10439158;28;20652;-46
2023/11/07 06:26:16;;;;;;;6.70;1.50;;;23.40;58.50;;;;;;10453397;28;20784;-45
2023/11/07 06:31:24;;;;;;;3.05;1.25;;;23.40;58.50;;;;;;10446769;28;20215;-44
2023/11/07 06:36:28;;;;;;;6.40;1.63;;;23.40;58.50;;;;;;10443359;28;20271;-44
2023/11/07 06:41:32;;;;;;;3.28;1.50;;;23.40;58.50;;;;;;10428851;28;20239;-42
2023/11/07 06:46:40;;;;;;;3.90;2.63;;;23.20;55.80;;;;;;10451504;28;20269;-47
2023/11/07 06:51:44;;;;;;;2.15;1.80;;;22.50;54.50;;;;;;10446920;28;20281;-46
2023/11/07 06:56:47;;;;;;;4.20;2.08;;;22.40;55.90;;;;;;10429129;28;20224;-44
2023/11/07 07:01:52;;;;;;;2.45;1.60;;;22.50;56.30;;;;;;10438223;28;20250;-46
2023/11/07 07:06:56;;;;;;;1.75;1.58;;;22.60;56.40;;;;;;10438606;28;20220;-43
2023/11/07 07:12:00;;;;;;;1.60;1.40;;;22.70;56.50;;;;;;10434639;28;20764;-46
2023/11/07 07:17:07;;;;;;;2.40;1.67;;;22.80;56.50;;;;;;10442451;28;20220;-44
2023/11/07 07:22:11;;;;;;;1.80;1.50;;;22.80;56.50;;;;;;10440884;28;20195;-42
2023/11/07 07:27:15;;;;;;;1.58;1.20;;;22.90;56.60;;;;;;10447951;28;20685;-43
2023/11/07 07:32:20;;;;;;;1.33;1.23;;;22.90;56.60;;;;;;10451758;28;20247;-45
2023/11/07 07:37:23;;;;;;;2.15;1.40;;;23.00;56.70;;;;;;10447140;28;20220;-45
2023/11/07 07:42:28;;;;;;;2.63;1.60;;;23.00;56.70;;;;;;10443387;28;20278;-45
2023/11/07 07:47:35;;;;;;;1.98;1.45;;;23.00;56.70;;;;;;10451036;28;20215;-45
2023/11/07 07:52:43;;;;;;;1.40;1.23;;;23.00;56.80;;;;;;10444583;28;20294;-43
2023/11/07 07:57:47;;;;;;;1.80;1.30;;;23.00;56.80;;;;;;10438304;28;20646;-44
2023/11/07 08:02:53;;;;;;;1.52;1.10;;;23.00;56.80;;;;;;10440549;28;20262;-43
2023/11/07 08:07:57;;;;;;;1.30;1.20;;;23.00;56.80;;;;;;10429819;28;20281;-48
2023/11/07 08:13:00;;;;;;;2.10;1.40;;;23.10;56.90;;;;;;10435664;28;20219;-43
2023/11/07 08:18:06;;;;;;;3.53;1.35;;;23.10;56.90;;;;;;10435154;28;20228;-44
2023/11/07 08:23:11;;;;;;;2.20;1.50;;;23.00;56.80;;;;;;10437297;28;20578;-44
2023/11/07 08:28:14;;;;;;;1.85;1.40;;;23.10;56.90;;;;;;10437194;28;20220;-43
2023/11/07 08:33:19;;;;;;;1.38;1.08;;;23.10;57.00;;;;;;10434822;28;20243;-45
2023/11/07 08:38:25;;;;;;;2.55;1.10;;;23.10;57.00;;;;;;10428156;28;20215;-44
2023/11/07 08:43:28;;;;;;;1.38;1.20;;;23.10;57.00;;;;;;10431497;28;20278;-42
2023/11/07 08:48:34;;;;;;;1.05;0.93;;;23.10;57.00;;;;;;10440188;28;20220;-45
2023/11/07 08:53:38;;;;;;;1.17;1.08;;;23.10;57.00;;;;;;10443034;28;20328;-45
2023/11/07 08:58:43;;;;;;;1.50;1.10;;;23.10;57.00;;;;;;10450817;28;20314;-45
2023/11/07 09:03:48;;;;;;;1.42;1.10;;;23.10;57.00;;;;;;10445161;28;20230;-43
2023/11/07 09:08:52;;;;;;;0.98;0.70;;;23.10;57.00;;;;;;10436305;28;20685;-42
2023/11/07 09:13:55;;;;;;;1.35;1.00;;;23.10;57.00;;;;;;10442246;28;20220;-43
2023/11/07 09:19:00;;;;;;;2.45;1.20;;;23.20;57.10;;;;;;10450025;28;20284;-45
2023/11/07 09:24:05;;;;;;;2.00;1.00;;;23.10;57.00;;;;;;10442364;28;20196;-45
2023/11/07 09:29:11;;;;;;;1.42;1.10;;;23.10;57.10;;;;;;10449533;28;20215;-45
2023/11/07 09:34:17;;;;;;;1.10;0.95;;;23.10;57.00;;;;;;10409154;28;20219;-46
2023/11/07 09:39:21;;;;;;;2.22;1.08;;;23.20;57.20;;;;;;10440158;28;20215;-44
2023/11/07 09:44:25;;;;;;;1.77;1.00;;;23.10;57.10;;;;;;10445220;28;20196;-44
2023/11/07 09:49:30;;;;;;;1.70;1.02;;;23.10;57.10;;;;;;10425903;28;20250;-46
2023/11/07 09:54:36;;;;;;;1.00;0.90;;;23.10;57.10;;;;;;10451149;28;20247;-42
2023/11/07 09:59:49;;;;;;;2.00;1.02;;;23.10;57.10;;;;;;10452713;28;20219;-44
2023/11/07 10:04:57;;;;;;;1.67;1.02;;;23.10;57.10;;;;;;10453473;28;20253;-44
2023/11/07 10:10:05;;;;;;;1.42;1.10;;;23.10;57.80;;;;;;10436132;28;20269;-43
2023/11/07 10:15:16;;;;;;;1.20;0.98;;;23.20;57.20;;;;;;10447929;28;20216;-43
2023/11/07 10:20:22;;;;;;;1.25;0.98;;;23.20;57.20;;;;;;10456709;28;20752;-44
2023/11/07 10:25:29;;;;;;;1.25;0.95;;;23.20;57.20;;;;;;10455146;28;20707;-46
2023/11/07 10:30:39;;;;;;;1.20;1.00;;;23.20;57.20;;;;;;10450777;28;20200;-44
2023/11/07 10:35:55;;;;;;;1.70;1.00;;;23.10;57.10;;;;;;10449210;28;20219;-49
2023/11/07 10:41:01;;;;;;;0.88;0.80;;;23.20;57.30;;;;;;10450618;28;20252;-48
2023/11/07 10:46:06;;;;;;;1.08;0.95;;;23.20;57.90;;;;;;10455004;28;20269;-45
2023/11/07 10:51:12;;;;;;;2.80;1.15;;;23.20;57.30;;;;;;10451199;28;20216;-45
2023/11/07 10:56:18;;;;;;;1.65;0.90;;;23.20;57.20;;;;;;10443095;28;20219;-44
2023/11/07 11:01:24;;;;;;;1.92;0.70;;;23.20;57.30;;;;;;10445512;28;20238;-48
2023/11/07 11:06:32;;;;;;;1.55;0.95;;;23.20;57.30;;;;;;10439918;28;20220;-48
2023/11/07 11:11:36;;;;;;;1.58;1.05;;;23.20;57.30;;;;;;10451761;28;20215;-47
2023/11/07 11:16:43;;;;;;;1.05;0.77;;;23.20;57.20;;;;;;10437823;28;20227;-46
2023/11/07 11:21:54;;;;;;;1.15;0.80;;;23.20;57.20;;;;;;10453951;28;20253;-45
2023/11/07 11:27:07;;;;;;;1.70;0.80;;;23.20;57.30;;;;;;10437771;28;20223;-43
2023/11/07 11:32:26;;;;;;;1.27;0.70;;;23.20;57.30;;;;;;10429857;28;20676;-44
2023/11/07 11:38:18;;;;;;;0.80;0.80;;;23.20;57.30;;;;;;10451690;28;20241;-44
2023/11/07 11:43:23;;;;;;;1.10;0.85;;;23.20;57.30;;;;;;10440052;28;20266;-45
2023/11/07 11:49:05;;;;;;;1.35;0.90;;;23.20;57.20;;;;;;10439949;28;20215;-48
2023/11/07 11:54:12;;;;;;;0.60;0.60;;;23.20;57.30;;;;;;10437738;28;20247;-44
2023/11/07 11:59:17;;;;;;;1.17;0.60;;;23.20;57.30;;;;;;10437104;28;20269;-46
2023/11/07 12:04:33;;;;;;;1.95;0.80;;;23.20;57.20;;;;;;10436493;28;20219;-44
2023/11/07 12:09:40;;;;;;;1.10;0.80;;;23.20;57.20;;;;;;10434448;28;20252;-44
2023/11/07 12:14:50;;;;;;;1.48;0.80;;;23.20;57.20;;;;;;10441400;28;20274;-44
2023/11/07 12:20:03;;;;;;;1.48;0.80;;;23.20;57.30;;;;;;10411124;28;20254;-47
2023/11/07 12:25:12;;;;;;;1.42;0.60;;;23.20;57.30;;;;;;10444195;28;20257;-46
2023/11/07 12:30:17;;;;;;;1.30;0.68;;;23.20;57.90;;;;;;10445445;28;20230;-46
2023/11/07 12:35:23;;;;;;;1.38;0.75;;;23.20;57.30;;;;;;10443765;28;20294;-43
2023/11/07 12:40:29;;;;;;;1.08;0.75;;;23.20;57.30;;;;;;10443599;28;20207;-44
2023/11/07 12:45:36;;;;;;;1.15;0.60;;;23.20;57.30;;;;;;10447950;28;20272;-44
2023/11/07 12:50:43;;;;;;;3.78;1.05;;;23.20;57.30;;;;;;10431696;28;20200;-46
2023/11/07 12:55:55;;;;;;;0.75;0.60;;;23.20;57.30;;;;;;10436838;28;20274;-44
2023/11/07 13:01:00;;;;;;;1.25;0.60;;;23.20;57.30;;;;;;10428436;28;20232;-48
2023/11/07 13:06:06;;;;;;;1.42;0.85;;;23.20;57.30;;;;;;10433301;28;20219;-46
2023/11/07 13:11:15;;;;;;;0.80;0.80;;;23.20;57.30;;;;;;10442291;28;20247;-45
2023/11/07 13:16:20;;;;;;;2.10;0.93;;;23.20;57.30;;;;;;10442299;28;20224;-46
2023/11/07 13:21:24;;;;;;;1.25;0.65;;;23.20;57.30;;;;;;10449160;28;20729;-44
2023/11/07 13:26:29;;;;;;;0.80;0.70;;;23.20;57.30;;;;;;10450647;28;20680;-43
2023/11/07 13:31:33;;;;;;;1.15;0.77;;;23.20;57.30;;;;;;10449285;28;20724;-45
2023/11/07 13:36:37;;;;;;;1.77;0.85;;;23.20;57.30;;;;;;10450552;28;20224;-44
2023/11/07 13:41:44;;;;;;;1.83;0.60;;;23.20;57.30;;;;;;10445712;28;20265;-49
2023/11/07 13:46:47;;;;;;;1.95;0.80;;;23.20;57.30;;;;;;10432826;28;20255;-49
2023/11/07 13:51:51;;;;;;;1.48;0.80;;;23.20;57.30;;;;;;10449713;28;20273;-45
2023/11/07 13:56:56;;;;;;;0.85;0.80;;;23.20;57.30;;;;;;10453855;28;20266;-46
2023/11/07 14:02:00;;;;;;;1.35;0.70;;;23.20;57.30;;;;;;10449452;28;20720;-46
2023/11/07 14:07:03;;;;;;;1.08;0.80;;;23.20;57.30;;;;;;10444165;28;20657;-43
2023/11/07 14:12:09;;;;;;;0.60;0.60;;;23.20;57.30;;;;;;10440323;28;20231;-44
2023/11/07 14:17:14;;;;;;;1.65;0.82;;;23.20;57.30;;;;;;10444195;28;20224;-45
2023/11/07 14:22:18;;;;;;;0.63;0.50;;;23.20;57.90;;;;;;10426238;28;20192;-43
2023/11/07 14:27:22;;;;;;;1.40;0.70;;;23.20;57.30;;;;;;10449656;28;20211;-44
2023/11/07 14:32:28;;;;;;;0.65;0.60;;;23.20;57.30;;;;;;10398428;28;20220;-48
2023/11/07 14:37:32;;;;;;;1.63;0.73;;;23.20;57.30;;;;;;10366725;28;20219;-44
2023/11/07 14:42:37;;;;;;;0.75;0.63;;;23.20;57.30;;;;;;10457640;28;20199;-50
2023/11/07 14:47:43;;;;;;;1.08;0.60;;;23.20;57.30;;;;;;10467429;28;20266;-47
2023/11/07 14:52:47;;;;;;;1.23;0.70;;;23.20;57.30;;;;;;10453699;28;20245;-45
2023/11/07 14:57:53;;;;;;;1.20;1.00;;;23.20;57.30;;;;;;10456619;28;20227;-49
2023/11/07 15:02:59;;;;;;;1.45;1.00;;;23.20;57.30;;;;;;10455858;28;20714;-45
2023/11/07 15:08:05;;;;;;;1.27;0.95;;;23.20;57.30;;;;;;10455955;28;20254;-45
2023/11/07 15:13:11;;;;;;;0.93;0.70;;;23.20;57.30;;;;;;10455930;28;20211;-45
2023/11/07 15:18:17;;;;;;;0.85;0.68;;;23.20;57.30;;;;;;10450905;28;20242;-45
2023/11/07 15:23:21;;;;;;;1.20;0.98;;;23.20;57.30;;;;;;10455292;28;20195;-45
2023/11/07 15:28:26;;;;;;;1.77;1.00;;;23.20;57.30;;;;;;10459959;28;20594;-45
2023/11/07 15:33:29;;;;;;;2.38;1.05;;;23.20;57.30;;;;;;10455982;28;20211;-44
2023/11/07 15:38:33;;;;;;;1.70;0.90;;;23.20;57.30;;;;;;10458454;28;20297;-45
2023/11/07 15:43:38;;;;;;;1.02;0.80;;;23.20;57.30;;;;;;10454405;28;20207;-48
2023/11/07 15:48:42;;;;;;;2.08;0.95;;;23.20;57.30;;;;;;10454831;28;20215;-44
2023/11/07 15:53:45;;;;;;;1.58;0.90;;;23.20;57.30;;;;;;10465774;28;20244;-45
2023/11/07 15:58:50;;;;;;;1.00;0.82;;;23.20;57.30;;;;;;10453022;28;20223;-45
2023/11/07 16:03:55;;;;;;;5.43;1.25;;;23.20;57.30;;;;;;10452435;28;20256;-44
2023/11/07 16:08:59;;;;;;;3.10;1.08;;;23.20;57.30;;;;;;10453548;28;20261;-46
2023/11/07 16:14:05;;;;;;;2.00;0.95;;;23.20;57.30;;;;;;10450752;28;20219;-45
2023/11/07 16:19:08;;;;;;;0.98;0.77;;;23.20;57.30;;;;;;10451409;28;20215;-44
2023/11/07 16:24:12;;;;;;;1.08;0.80;;;23.20;57.90;;;;;;10451494;28;20780;-45
2023/11/07 16:29:20;;;;;;;2.20;1.00;;;23.20;57.30;;;;;;10447945;28;20227;-46
2023/11/07 16:34:23;;;;;;;1.95;1.10;;;23.20;57.30;;;;;;10436850;28;20297;-43
2023/11/07 16:39:27;;;;;;;1.00;0.73;;;23.10;57.20;;;;;;10450943;28;20575;-46
2023/11/07 16:44:39;;;;;;;1.98;1.00;;;23.10;57.20;;;;;;10449915;28;20192;-48
2023/11/07 16:49:43;;;;;;;1.52;1.00;;;23.10;57.20;;;;;;10451208;28;20220;-46
2023/11/07 16:54:46;;;;;;;1.08;0.80;;;23.10;57.20;;;;;;10444477;28;20272;-44
2023/11/07 16:59:51;;;;;;;0.80;0.80;;;23.20;57.30;;;;;;10449213;28;20724;-44
2023/11/07 17:04:55;;;;;;;1.52;0.90;;;23.20;57.30;;;;;;10447842;28;20203;-44
2023/11/07 17:09:59;;;;;;;2.13;1.15;;;23.20;57.30;;;;;;10450338;28;20195;-46
2023/11/07 17:15:05;;;;;;;1.35;0.80;;;23.20;57.20;;;;;;10451232;28;20216;-45
2023/11/07 17:20:12;;;;;;;1.38;0.98;;;23.20;57.20;;;;;;10457038;28;20200;-46
2023/11/07 17:25:16;;;;;;;2.33;1.08;;;23.10;57.10;;;;;;10448980;28;20245;-45
2023/11/07 17:30:22;;;;;;;0.80;0.80;;;23.10;57.10;;;;;;10452680;28;20280;-45
2023/11/07 17:35:25;;;;;;;1.00;0.88;;;23.10;57.10;;;;;;10452748;28;20275;-45
2023/11/07 17:40:29;;;;;;;1.17;0.85;;;23.10;57.10;;;;;;10452804;28;20204;-43
2023/11/07 17:45:34;;;;;;;1.45;0.95;;;23.10;57.10;;;;;;10454266;28;20242;-44
2023/11/07 17:50:37;;;;;;;1.55;1.00;;;23.20;57.20;;;;;;10443049;28;20297;-45
2023/11/07 17:55:41;;;;;;;7.93;1.10;;;23.10;57.00;;;;;;10451254;28;20224;-47
2023/11/07 18:00:46;;;;;;;4.15;1.30;;;23.20;57.20;;;;;;10449486;28;20230;-45
2023/11/07 18:05:50;;;;;;;3.97;1.00;;;23.20;57.20;;;;;;10427551;28;20687;-43
2023/11/07 18:11:00;;;;;;;2.20;0.95;;;23.10;57.10;;;;;;10449170;28;20693;-46
2023/11/07 18:16:10;;;;;;;1.65;1.00;;;23.10;57.00;;;;;;10431939;28;20598;-48
2023/11/07 18:21:14;;;;;;;1.77;0.98;;;23.10;57.10;;;;;;10448729;28;20196;-43
2023/11/07 18:26:20;;;;;;;1.40;1.00;;;23.10;57.00;;;;;;10452880;28;20601;-45
2023/11/07 18:31:27;;;;;;;1.25;0.90;;;23.10;57.10;;;;;;10446068;28;20227;-46
2023/11/07 18:36:30;;;;;;;1.80;1.10;;;23.10;57.00;;;;;;10446796;28;20243;-48
2023/11/07 18:41:34;;;;;;;3.85;1.10;;;23.10;57.00;;;;;;10454423;28;20192;-43
2023/11/07 18:46:39;;;;;;;1.48;0.90;;;23.20;57.10;;;;;;10448770;28;20617;-48
2023/11/07 18:51:43;;;;;;;1.52;1.00;;;23.10;57.00;;;;;;10456193;28;20204;-46
2023/11/07 18:56:47;;;;;;;3.47;1.10;;;23.20;57.20;;;;;;10454411;28;20277;-45
2023/11/07 19:01:53;;;;;;;1.45;0.90;;;23.10;57.10;;;;;;10454931;28;20616;-46
2023/11/07 19:06:56;;;;;;;1.75;1.00;;;23.20;57.20;;;;;;10454819;28;20418;-47
2023/11/07 19:12:01;;;;;;;1.50;0.80;;;23.10;57.10;;;;;;10454515;28;20200;-45
2023/11/07 19:17:06;;;;;;;2.63;0.90;;;23.10;57.10;;;;;;10452199;28;20296;-46
2023/11/07 19:22:10;;;;;;;1.17;0.70;;;23.20;57.20;;;;;;10454216;28;20725;-43
2023/11/07 19:27:16;;;;;;;1.45;0.95;;;23.10;57.10;;;;;;10447635;28;20211;-44
2023/11/07 19:32:22;;;;;;;1.67;1.02;;;23.10;57.10;;;;;;10451493;28;20225;-43
2023/11/07 19:37:25;;;;;;;2.42;1.10;;;23.20;57.20;;;;;;10436924;28;21733;-46
2023/11/07 19:42:30;;;;;;;3.05;0.93;;;23.10;57.30;;;;;;10443099;28;20274;-46
2023/11/07 19:47:35;;;;;;;2.42;1.20;;;23.10;57.30;;;;;;10446849;28;20309;-45
2023/11/07 19:52:39;;;;;;;2.63;1.30;;;23.10;57.30;;;;;;10452690;28;20246;-44
2023/11/07 19:57:43;;;;;;;2.58;1.15;;;23.20;57.50;;;;;;10451577;28;20289;-43
2023/11/07 20:02:48;;;;;;;3.10;1.30;;;23.10;57.40;;;;;;10422354;28;20793;-46
2023/11/07 20:07:51;;;;;;;2.65;1.30;;;23.10;57.40;;;;;;10449027;28;21415;-43
2023/11/07 20:13:01;;;;;;;2.22;1.23;;;23.20;57.50;;;;;;10452776;28;20203;-46
2023/11/07 20:18:06;;;;;;;3.13;1.38;;;23.20;57.50;;;;;;10451340;28;20299;-47
2023/11/07 20:23:11;;;;;;;2.50;1.20;;;23.20;57.50;;;;;;10451152;28;20659;-46
2023/11/07 20:28:15;;;;;;;2.30;1.20;;;23.20;57.50;;;;;;10442293;28;20243;-47
2023/11/07 20:33:20;;;;;;;8.80;1.40;;;23.10;57.40;;;;;;10441970;28;20246;-46
2023/11/07 20:38:24;;;;;;;2.95;1.15;;;23.10;57.50;;;;;;10448042;28;20253;-47
2023/11/07 20:43:27;;;;;;;2.90;1.40;;;23.10;57.40;;;;;;10438992;28;20690;-45
2023/11/07 20:48:35;;;;;;;3.33;1.42;;;23.10;57.40;;;;;;10441757;28;20219;-46
2023/11/07 20:53:39;;;;;;;2.95;1.20;;;23.10;57.40;;;;;;10441088;28;20230;-45
2023/11/07 20:58:43;;;;;;;2.47;1.17;;;23.10;57.40;;;;;;10427092;28;20312;-45
2023/11/07 21:03:48;;;;;;;1.85;1.20;;;23.10;57.40;;;;;;10447854;28;20195;-44
2023/11/07 21:08:53;;;;;;;2.53;1.27;;;23.10;57.40;;;;;;10444287;28;20220;-45
2023/11/07 21:13:57;;;;;;;19.15;2.58;;;23.20;57.50;;;;;;10445094;28;20203;-44
2023/11/07 21:19:02;;;;;;;15.88;1.95;;;23.20;57.60;;;;;;10436804;28;20249;-46
2023/11/07 21:24:07;;;;;;;14.88;2.05;;;23.20;58.20;;;;;;10438554;28;20253;-47
2023/11/07 21:29:10;;;;;;;8.27;1.70;;;23.20;57.60;;;;;;10440302;28;20243;-44
2023/11/07 21:34:16;;;;;;;6.50;1.58;;;23.10;57.50;;;;;;10445566;28;20223;-45
2023/11/07 21:39:21;;;;;;;6.82;1.85;;;23.10;57.50;;;;;;10441004;28;20250;-45
2023/11/07 21:44:24;;;;;;;8.10;1.50;;;23.20;57.60;;;;;;10438646;28;20219;-43
2023/11/07 21:49:30;;;;;;;7.60;1.85;;;23.10;57.50;;;;;;10434356;28;20269;-45
2023/11/07 21:54:33;;;;;;;5.32;1.50;;;23.10;57.50;;;;;;10451843;28;20361;-44
2023/11/07 21:59:37;;;;;;;6.32;1.60;;;23.10;57.50;;;;;;10456320;28;20289;-49
2023/11/07 22:04:42;;;;;;;7.15;1.33;;;23.10;57.50;;;;;;10450652;28;20199;-43
2023/11/07 22:09:46;;;;;;;3.85;1.45;;;23.10;57.50;;;;;;10455660;28;20215;-46
2023/11/07 22:14:50;;;;;;;8.02;1.60;;;23.10;57.50;;;;;;10453564;28;20348;-44
2023/11/07 22:19:57;;;;;;;2.95;1.08;;;23.10;57.50;;;;;;10455186;28;20289;-46
2023/11/07 22:25:01;;;;;;;4.95;1.00;;;23.10;57.50;;;;;;10452575;28;20245;-44
2023/11/07 22:30:08;;;;;;;4.45;1.23;;;23.10;57.50;;;;;;10454207;28;20562;-45
2023/11/07 22:35:14;;;;;;;1.80;1.17;;;23.10;57.50;;;;;;10453650;28;20199;-46
2023/11/07 22:40:17;;;;;;;9.27;1.55;;;23.10;57.40;;;;;;10448042;28;20659;-44
2023/11/07 22:45:22;;;;;;;10.88;1.90;;;23.10;57.50;;;;;;10434446;28;20220;-46
2023/11/07 22:50:27;;;;;;;5.85;1.20;;;23.10;57.40;;;;;;10441091;28;20569;-48
2023/11/07 22:55:31;;;;;;;4.97;1.42;;;23.10;57.40;;;;;;10441691;28;20249;-46
2023/11/07 23:00:39;;;;;;;2.88;1.23;;;23.10;57.40;;;;;;10434633;28;20721;-46
2023/11/07 23:05:44;;;;;;;3.58;1.10;;;23.10;58.00;;;;;;10432677;28;20254;-47
2023/11/07 23:10:50;;;;;;;2.45;1.20;;;23.10;57.40;;;;;;10433179;28;20226;-46
2023/11/07 23:15:53;;;;;;;3.40;1.20;;;23.00;57.30;;;;;;10436296;28;20251;-46
2023/11/07 23:20:59;;;;;;;1.98;1.08;;;23.10;57.40;;;;;;10431912;28;20250;-45
2023/11/07 23:26:02;;;;;;;2.85;1.05;;;23.10;57.30;;;;;;10450011;28;20216;-46
2023/11/07 23:31:06;;;;;;;3.45;1.23;;;23.00;57.30;;;;;;10434676;28;20204;-45
2023/11/07 23:36:11;;;;;;;1.08;0.77;;;23.10;57.40;;;;;;10433507;28;20259;-47
2023/11/07 23:41:15;;;;;;;3.55;1.10;;;23.00;57.30;;;;;;10439770;28;20254;-43
2023/11/07 23:46:19;;;;;;;3.30;1.20;;;23.10;57.30;;;;;;10453270;28;20215;-46
2023/11/07 23:51:24;;;;;;;1.45;1.10;;;23.10;57.30;;;;;;10449314;28;20269;-45
2023/11/07 23:56:29;;;;;;;2.42;1.20;;;23.00;57.30;;;;;;10446992;28;20695;-45
